Time;durP1;ratioP1;P1;durP2;ratioP2;P2;SDS_P1;SDS_P2;PMS_P1;PMS_P2;Temp;Humidity;BMP_temperature;BMP_pressure;BME280_temperature;BME280_humidity;BME280_pressure;Samples;Min_cycle;Max_cycle;Signal;HPM_P1;HPM_P2
2023/10/16 00:02:23;;;;;;;0.00;0.00;;;;;;;12.59;51.87;101808.50;7355223;19;20018;-59
2023/10/16 00:04:49;;;;;;;0.00;0.00;;;;;;;12.56;52.16;101809.41;7358388;19;20010;-60
2023/10/16 00:07:20;;;;;;;0.00;0.00;;;;;;;12.55;52.03;101810.31;7347547;19;20017;-60
2023/10/16 00:09:53;;;;;;;0.05;0.05;;;;;;;12.53;52.21;101808.59;7351960;19;20011;-60
2023/10/16 00:12:19;;;;;;;0.03;0.03;;;;;;;12.51;52.10;101803.34;7353823;19;20014;-59
2023/10/16 00:14:47;;;;;;;0.10;0.10;;;;;;;12.50;52.04;101803.38;7354998;19;20408;-59
2023/10/16 00:17:15;;;;;;;0.00;0.00;;;;;;;12.48;52.53;101800.78;7350520;19;20099;-60
2023/10/16 00:19:44;;;;;;;0.00;0.00;;;;;;;12.46;52.81;101797.31;7357322;19;20411;-59
2023/10/16 00:22:13;;;;;;;0.03;0.03;;;;;;;12.45;52.42;101803.44;7351027;19;20010;-60
2023/10/16 00:24:45;;;;;;;0.00;0.00;;;;;;;12.41;52.51;101788.66;7357658;19;20018;-60
2023/10/16 00:27:13;;;;;;;0.00;0.00;;;;;;;12.39;52.59;101795.66;7349798;19;20006;-59
2023/10/16 00:29:41;;;;;;;0.05;0.05;;;;;;;12.39;52.71;101790.44;7355799;19;20135;-60
2023/10/16 00:32:07;;;;;;;0.10;0.10;;;;;;;12.37;52.68;101784.34;7353077;19;20018;-59
2023/10/16 00:34:33;;;;;;;0.10;0.10;;;;;;;12.23;53.27;101763.56;7354855;19;20507;-59
2023/10/16 00:37:01;;;;;;;0.03;0.03;;;;;;;12.34;52.79;101785.25;7353277;19;20007;-59
2023/10/16 00:39:28;;;;;;;0.10;0.10;;;;;;;12.34;53.11;101776.53;7355789;19;20017;-59
2023/10/16 00:41:54;;;;;;;0.00;0.00;;;;;;;12.32;53.00;101768.69;7355568;19;20021;-58
2023/10/16 00:44:22;;;;;;;0.00;0.00;;;;;;;12.32;53.00;101773.06;7354696;19;20010;-60
2023/10/16 00:46:50;;;;;;;0.10;0.10;;;;;;;12.30;53.32;101772.22;7351743;19;20022;-60
2023/10/16 00:49:18;;;;;;;0.03;0.03;;;;;;;12.30;53.37;101769.59;7353225;19;20010;-59
2023/10/16 00:51:45;;;;;;;0.00;0.00;;;;;;;12.29;53.27;101773.09;7347371;19;20007;-59
2023/10/16 00:54:18;;;;;;;0.10;0.10;;;;;;;12.28;53.34;101767.00;7354757;19;20073;-59
2023/10/16 00:56:51;;;;;;;0.00;0.00;;;;;;;12.22;52.91;101767.09;7353078;19;20014;-60
2023/10/16 00:59:17;;;;;;;0.00;0.00;;;;;;;12.18;53.45;101750.53;7355895;19;20010;-59
2023/10/16 01:01:46;;;;;;;0.10;0.10;;;;;;;12.24;53.14;101760.06;7349866;19;20025;-59
2023/10/16 01:04:13;;;;;;;0.00;0.00;;;;;;;12.08;53.23;101738.44;7355090;19;20042;-59
2023/10/16 01:06:41;;;;;;;0.00;0.00;;;;;;;12.18;53.79;101750.53;7352145;19;20030;-59
2023/10/16 01:09:12;;;;;;;0.10;0.10;;;;;;;12.17;53.83;101750.56;7361752;19;20069;-59
2023/10/16 01:11:38;;;;;;;0.10;0.10;;;;;;;12.14;53.61;101742.72;7362250;19;20010;-59
2023/10/16 01:14:05;;;;;;;0.00;0.00;;;;;;;12.11;53.35;101737.53;7361642;19;20019;-60
2023/10/16 01:16:31;;;;;;;0.03;0.03;;;;;;;12.06;53.48;101734.94;7363169;19;20054;-60
2023/10/16 01:19:00;;;;;;;0.00;0.00;;;;;;;12.05;53.69;101735.84;7362480;19;20344;-60
2023/10/16 01:21:28;;;;;;;0.00;0.00;;;;;;;12.01;53.40;101734.16;7358646;19;20018;-59
2023/10/16 01:23:55;;;;;;;0.10;0.10;;;;;;;11.98;53.79;101736.81;7364066;19;20778;-60
2023/10/16 01:26:21;;;;;;;;;;;;;;;11.96;51.72;101730.72;7361777;19;20319;-59
2023/10/16 01:28:46;;;;;;;0.00;0.00;;;;;;;11.91;53.44;101724.66;7361417;19;19947;-58
2023/10/16 01:31:13;;;;;;;0.00;0.00;;;;;;;11.86;53.33;101726.47;7359092;19;20010;-59
2023/10/16 01:33:41;;;;;;;0.00;0.00;;;;;;;11.83;53.80;101729.16;7369557;19;20035;-59
2023/10/16 01:36:07;;;;;;;0.00;0.00;;;;;;;11.77;53.47;101729.19;7366478;19;20910;-60
2023/10/16 01:38:33;;;;;;;0.05;0.05;;;;;;;11.74;53.63;101726.59;7361009;19;20007;-59
2023/10/16 01:41:09;;;;;;;0.10;0.10;;;;;;;11.62;53.85;101715.38;7364836;19;20010;-60
2023/10/16 01:43:37;;;;;;;0.00;0.00;;;;;;;11.66;53.77;101731.94;7362629;19;20813;-59
2023/10/16 01:46:13;;;;;;;0.00;0.00;;;;;;;11.59;53.64;101717.16;7363255;19;20029;-59
2023/10/16 01:48:47;;;;;;;0.10;0.10;;;;;;;11.58;54.29;101721.53;7364967;19;20010;-59
2023/10/16 01:51:19;;;;;;;0.00;0.00;;;;;;;11.52;54.19;101711.13;7360417;19;20038;-59
2023/10/16 01:53:47;;;;;;;0.00;0.00;;;;;;;11.49;54.09;101710.28;7362247;19;20006;-59
2023/10/16 01:56:14;;;;;;;0.00;0.00;;;;;;;11.49;54.11;101716.38;7365866;19;20025;-60
2023/10/16 01:58:44;;;;;;;0.10;0.10;;;;;;;11.46;54.44;101710.34;7357332;19;20002;-59
2023/10/16 02:01:15;;;;;;;0.10;0.10;;;;;;;11.45;54.21;101698.97;7364672;19;20031;-59
2023/10/16 02:03:44;;;;;;;0.00;0.00;;;;;;;11.29;54.21;101685.19;7362686;19;20010;-59
2023/10/16 02:06:13;;;;;;;0.00;0.00;;;;;;;11.40;54.23;101703.38;7360382;19;20022;-59
2023/10/16 02:08:43;;;;;;;0.00;0.00;;;;;;;11.39;54.40;101704.28;7363004;19;20014;-58
2023/10/16 02:11:12;;;;;;;0.00;0.00;;;;;;;11.39;54.46;101699.06;7365076;19;20021;-59
2023/10/16 02:13:41;;;;;;;0.10;0.10;;;;;;;11.39;54.33;101704.28;7355021;19;20015;-57
2023/10/16 02:16:15;;;;;;;0.10;0.10;;;;;;;11.38;54.67;101692.09;7364876;19;20877;-59
2023/10/16 02:18:41;;;;;;;0.10;0.10;;;;;;;11.38;54.40;101705.16;7362061;19;20011;-59
2023/10/16 02:21:11;;;;;;;0.10;0.10;;;;;;;11.38;54.98;101702.56;7363448;19;20022;-58
2023/10/16 02:23:41;;;;;;;0.10;0.10;;;;;;;11.37;55.05;101695.59;7360166;19;20600;-59
2023/10/16 02:26:06;;;;;;;0.00;0.00;;;;;;;11.39;54.65;101699.06;7363006;19;20010;-59
2023/10/16 02:28:32;;;;;;;0.00;0.00;;;;;;;11.39;55.01;101702.53;7360874;19;20017;-59
2023/10/16 02:31:16;;;;;;;0.00;0.00;;;;;;;11.42;53.92;101699.03;7358733;19;20641;-59
2023/10/16 02:33:50;;;;;;;0.00;0.00;;;;;;;11.31;54.95;101685.22;7360921;19;20761;-59
2023/10/16 02:36:18;;;;;;;0.00;0.00;;;;;;;11.41;54.90;101697.31;7360025;19;20011;-59
2023/10/16 02:38:46;;;;;;;0.00;0.00;;;;;;;11.36;54.92;101693.88;7364214;19;20038;-59
2023/10/16 02:41:14;;;;;;;0.00;0.00;;;;;;;11.41;55.11;101697.31;7363689;19;20010;-59
2023/10/16 02:43:42;;;;;;;0.00;0.00;;;;;;;11.40;55.08;101687.69;7364830;19;20724;-60
2023/10/16 02:46:11;;;;;;;0.00;0.00;;;;;;;11.41;54.91;101697.31;7354818;19;20026;-59
2023/10/16 02:48:44;;;;;;;0.05;0.05;;;;;;;11.42;55.15;101693.81;7371533;19;20027;-59
2023/10/16 02:51:10;;;;;;;0.00;0.00;;;;;;;11.15;54.99;101653.97;7355668;19;20650;-59
2023/10/16 02:53:37;;;;;;;0.00;0.00;;;;;;;11.38;55.50;101692.97;7360810;19;20445;-59
2023/10/16 02:58:42;;;;;;;0.00;0.00;;;;;;;11.37;55.27;101695.59;7359842;19;20014;-59
2023/10/16 03:01:14;;;;;;;0.10;0.10;;;;;;;11.34;55.21;101693.00;7367145;19;20686;-60
2023/10/16 03:03:43;;;;;;;0.00;0.00;;;;;;;11.32;55.29;101693.03;7358071;19;20014;-59
2023/10/16 03:06:09;;;;;;;0.00;0.00;;;;;;;11.30;55.33;101694.78;7364292;19;20010;-59
2023/10/16 03:08:36;;;;;;;0.00;0.00;;;;;;;11.26;55.37;101685.25;7364525;19;20018;-60
2023/10/16 03:11:06;;;;;;;0.00;0.00;;;;;;;11.26;55.36;101687.88;7362043;19;20074;-59
2023/10/16 03:13:37;;;;;;;0.10;0.10;;;;;;;11.24;55.70;101683.50;7360027;19;20090;-60
2023/10/16 03:16:08;;;;;;;0.00;0.00;;;;;;;11.21;55.38;101683.56;7365654;19;20015;-59
2023/10/16 03:18:34;;;;;;;0.00;0.00;;;;;;;11.17;55.48;101683.56;7332394;19;20010;-59
2023/10/16 03:23:46;;;;;;;0.00;0.00;;;;;;;11.07;55.29;101668.88;7360865;19;20003;-58
2023/10/16 03:26:34;;;;;;;0.00;0.00;;;;;;;11.08;55.41;101677.56;7363065;19;20014;-60
2023/10/16 03:29:00;;;;;;;0.00;0.00;;;;;;;11.04;55.59;101676.72;7358784;19;20104;-59
2023/10/16 03:31:27;;;;;;;0.00;0.00;;;;;;;11.02;55.41;101664.56;7362321;19;20098;-60
2023/10/16 03:33:55;;;;;;;0.00;0.00;;;;;;;10.99;55.94;101673.28;7360434;19;20018;-60
2023/10/16 03:36:22;;;;;;;0.10;0.10;;;;;;;10.96;55.91;101675.94;7364133;19;20070;-58
2023/10/16 03:38:50;;;;;;;0.00;0.00;;;;;;;10.93;55.69;101668.13;7362666;19;20010;-58
2023/10/16 03:41:32;;;;;;;0.00;0.00;;;;;;;10.77;55.77;101645.63;7363210;19;20066;-59
2023/10/16 03:44:07;;;;;;;0.08;0.08;;;;;;;10.86;55.68;101666.44;7362799;19;20027;-59
2023/10/16 03:46:32;;;;;;;0.03;0.03;;;;;;;10.85;55.73;101664.72;7363896;19;20023;-60
2023/10/16 03:48:58;;;;;;;0.00;0.00;;;;;;;10.83;55.82;101666.47;7364059;19;20014;-59
2023/10/16 03:51:24;;;;;;;0.10;0.10;;;;;;;10.74;55.96;101666.53;7360463;19;20018;-59
2023/10/16 03:53:52;;;;;;;0.00;0.00;;;;;;;10.73;55.85;101660.44;7360078;19;20010;-59
2023/10/16 03:56:18;;;;;;;0.10;0.10;;;;;;;10.68;55.71;101657.00;7366294;19;20035;-59
2023/10/16 03:58:46;;;;;;;0.00;0.00;;;;;;;10.72;56.09;101668.28;7359699;19;20467;-59
2023/10/16 04:01:12;;;;;;;0.10;0.10;;;;;;;10.71;56.07;101661.34;7363207;19;20027;-60
2023/10/16 04:03:49;;;;;;;0.00;0.00;;;;;;;10.62;56.20;101657.91;7364204;19;20449;-59
2023/10/16 04:06:19;;;;;;;0.00;0.00;;;;;;;10.65;56.10;101665.75;7367041;19;20006;-59
2023/10/16 04:08:45;;;;;;;0.08;0.08;;;;;;;10.56;55.95;101651.88;7361751;19;20037;-59
2023/10/16 04:11:12;;;;;;;0.10;0.10;;;;;;;10.58;56.13;101658.81;7358881;19;20618;-60
2023/10/16 04:13:45;;;;;;;0.10;0.10;;;;;;;10.57;56.03;101664.06;7359623;19;20019;-60
2023/10/16 04:16:13;;;;;;;0.00;0.00;;;;;;;10.54;56.43;101659.72;7362863;19;20006;-59
2023/10/16 04:18:43;;;;;;;0.00;0.00;;;;;;;10.51;56.10;101664.09;7364526;19;20036;-59
2023/10/16 04:26:32;;;;;;;0.00;0.00;;;;;;;10.40;56.31;101648.50;7364085;19;20615;-59
2023/10/16 04:31:58;;;;;;;0.10;0.10;;;;;;;10.26;56.34;101637.28;7359586;19;20030;-59
2023/10/16 05:09:38;;;;;;;0.00;0.00;;;;;;;9.99;56.71;101586.97;7368094;19;20606;-59
2023/10/16 05:15:20;;;;;;;0.00;0.00;;;;;;;10.09;57.17;101593.88;7365760;19;20030;-60
2023/10/16 05:17:21;;;;;;;0.00;0.00;;;;;;;10.04;57.22;101585.19;7364446;19;20362;-59
2023/10/16 05:19:53;;;;;;;0.00;0.00;;;;;;;10.10;56.92;101603.41;7367105;19;20014;-59
2023/10/16 06:14:35;;;;;;;0.05;0.05;;;;;;;10.39;57.50;101542.31;7360437;19;20598;-60
2023/10/16 06:17:12;;;;;;;0.00;0.00;;;;;;;10.40;57.70;101541.47;7365496;19;20014;-58
2023/10/16 06:19:42;;;;;;;0.10;0.10;;;;;;;10.40;57.26;101536.25;7373161;19;20446;-59
2023/10/16 06:22:08;;;;;;;0.00;0.00;;;;;;;10.39;57.79;101535.38;7362861;19;20038;-59
2023/10/16 06:24:38;;;;;;;0.00;0.00;;;;;;;10.35;57.46;101527.56;7359222;19;20010;-60
2023/10/16 06:27:11;;;;;;;0.00;0.00;;;;;;;10.42;57.74;101539.69;7365842;19;20034;-58
2023/10/16 06:29:49;;;;;;;0.00;0.00;;;;;;;10.41;57.53;101532.75;7361702;19;20014;-59
2023/10/16 06:32:19;;;;;;;0.10;0.10;;;;;;;10.41;57.54;101535.34;7360750;19;20013;-60
2023/10/16 06:34:47;;;;;;;0.00;0.00;;;;;;;10.42;57.58;101541.44;7363115;19;20011;-59
2023/10/16 06:37:21;;;;;;;0.05;0.05;;;;;;;10.38;57.69;101537.97;7361504;19;20968;-59
2023/10/16 06:39:54;;;;;;;0.10;0.10;;;;;;;10.38;57.59;101538.84;7358623;19;20040;-59
2023/10/16 06:42:20;;;;;;;0.08;0.08;;;;;;;10.35;57.65;101538.03;7359350;19;20702;-59
2023/10/16 06:44:53;;;;;;;0.00;0.00;;;;;;;10.21;56.96;101522.44;7365961;19;20011;-59
2023/10/16 06:47:41;;;;;;;0.00;0.00;;;;;;;10.31;56.82;101536.31;7364504;19;20113;-59
2023/10/16 06:52:53;;;;;;;0.03;0.03;;;;;;;10.24;57.62;101532.00;7360556;19;20019;-59
2023/10/16 06:55:21;;;;;;;0.10;0.10;;;;;;;10.19;57.81;101529.41;7360505;19;20035;-60
2023/10/16 06:57:46;;;;;;;;;;;;;;;10.20;55.87;101525.94;7363016;19;20135;-59
2023/10/16 07:00:22;;;;;;;0.10;0.10;;;;;;;10.12;57.75;101528.56;7366149;19;20694;-59
2023/10/16 07:02:54;;;;;;;0.00;0.00;;;;;;;10.09;58.10;101530.38;7341162;19;20024;-59
2023/10/16 07:05:42;;;;;;;0.00;0.00;;;;;;;10.05;57.98;101528.66;7358724;19;20006;-58
2023/10/16 07:08:08;;;;;;;0.00;0.00;;;;;;;10.01;58.31;101533.00;7330235;19;20018;-59
2023/10/16 07:10:33;;;;;;;0.00;0.00;;;;;;;9.87;57.79;101517.44;7362826;19;20810;-59
2023/10/16 07:12:59;;;;;;;0.00;0.00;;;;;;;9.92;58.13;101533.06;7360599;19;20022;-59
2023/10/16 07:15:31;;;;;;;0.00;0.00;;;;;;;9.89;58.01;101527.91;7357144;19;20012;-58
2023/10/16 07:18:03;;;;;;;0.00;0.00;;;;;;;9.87;58.25;101535.72;7363693;19;20530;-59
2023/10/16 07:20:29;;;;;;;0.03;0.03;;;;;;;9.84;58.37;101534.88;7360437;19;20006;-59
2023/10/16 07:22:59;;;;;;;0.00;0.00;;;;;;;9.79;58.14;101528.81;7351367;19;20033;-59
2023/10/16 07:25:27;;;;;;;0.00;0.00;;;;;;;9.79;58.14;101528.81;7362182;19;20090;-58
2023/10/16 07:27:59;;;;;;;0.00;0.00;;;;;;;9.77;58.48;101528.81;7360382;19;20014;-58
2023/10/16 07:30:26;;;;;;;0.00;0.00;;;;;;;9.76;58.13;101534.06;7360198;19;20101;-58
2023/10/16 07:32:52;;;;;;;0.10;0.10;;;;;;;9.74;58.69;101535.81;7361874;19;20814;-59
2023/10/16 07:35:19;;;;;;;0.00;0.00;;;;;;;9.70;58.51;101521.91;7360717;19;20017;-59
2023/10/16 07:37:49;;;;;;;0.00;0.00;;;;;;;9.72;58.45;101535.81;7357043;19;20018;-59
2023/10/16 07:40:15;;;;;;;0.10;0.10;;;;;;;9.71;58.51;101533.22;7367259;19;20010;-59
2023/10/16 07:42:41;;;;;;;0.10;0.10;;;;;;;9.70;58.59;101532.34;7365851;19;20010;-58
2023/10/16 07:45:07;;;;;;;0.00;0.00;;;;;;;9.34;58.31;101470.84;7354201;19;20046;-59
2023/10/16 07:47:33;;;;;;;0.00;0.00;;;;;;;9.71;58.62;101530.59;7354694;19;20014;-58
2023/10/16 07:50:00;;;;;;;0.00;0.00;;;;;;;9.71;58.51;101533.22;7358516;19;20078;-59
2023/10/16 07:52:28;;;;;;;0.05;0.05;;;;;;;9.72;58.21;101529.72;7365156;19;20019;-58
2023/10/16 07:54:54;;;;;;;0.00;0.00;;;;;;;9.75;58.76;101529.72;7368304;19;20023;-58
2023/10/16 07:57:19;;;;;;;0.00;0.00;;;;;;;9.76;58.73;101532.31;7369798;19;20365;-58
2023/10/16 07:59:47;;;;;;;0.00;0.00;;;;;;;9.78;58.44;101530.56;7363785;19;20030;-57
2023/10/16 08:02:17;;;;;;;;;;;;;;;9.86;57.00;101520.06;7362493;19;20015;-59
2023/10/16 08:04:43;;;;;;;0.08;0.08;;;;;;;9.85;58.40;101523.56;7365623;19;19927;-59
2023/10/16 08:07:16;;;;;;;0.10;0.10;;;;;;;9.87;58.34;101525.28;7361692;19;20050;-59
2023/10/16 08:12:18;;;;;;;0.00;0.00;;;;;;;9.94;58.22;101502.63;7360506;19;20007;-59
2023/10/16 08:14:45;;;;;;;0.00;0.00;;;;;;;10.03;58.51;101509.50;7359792;19;20056;-58
2023/10/16 08:17:32;;;;;;;0.00;0.00;;;;;;;10.14;58.30;101505.97;7367484;19;20018;-59
2023/10/16 08:19:58;;;;;;;;;;;;;;;10.28;57.00;101505.00;7366945;19;20391;-59
2023/10/16 08:22:25;;;;;;;0.00;0.00;;;;;;;10.33;58.14;101511.03;7371919;19;19926;-59
2023/10/16 08:24:57;;;;;;;0.00;0.00;;;;;;;10.42;58.06;101510.97;7365058;19;20012;-59
2023/10/16 08:30:18;;;;;;;0.10;0.10;;;;;;;10.71;58.33;101512.44;7370725;19;20509;-58
2023/10/16 08:35:19;;;;;;;0.00;0.00;;;;;;;11.00;57.71;101515.63;7367488;19;20018;-58
2023/10/16 08:38:15;;;;;;;0.00;0.00;;;;;;;11.13;57.91;101514.56;7369708;19;20036;-59
2023/10/16 08:40:35;;;;;;;0.10;0.10;;;;;;;11.26;57.29;101507.44;7365927;19;20645;-59
2023/10/16 08:43:07;;;;;;;0.00;0.00;;;;;;;11.36;57.29;101505.59;7362191;19;20037;-59
2023/10/16 08:45:33;;;;;;;0.10;0.10;;;;;;;11.49;57.43;101507.13;7371792;19;20117;-59
2023/10/16 08:48:00;;;;;;;0.00;0.00;;;;;;;11.56;57.24;101507.94;7374836;19;20093;-59
2023/10/16 08:50:40;;;;;;;0.03;0.03;;;;;;;11.64;56.92;101511.28;7376067;19;20010;-59
2023/10/16 08:55:56;;;;;;;0.00;0.00;;;;;;;11.74;57.12;101518.13;7362561;19;20024;-59
2023/10/16 08:58:22;;;;;;;;;;;;;;;11.86;56.42;101512.75;7368506;19;20011;-59
2023/10/16 09:00:48;;;;;;;0.00;0.00;;;;;;;11.84;57.02;101516.28;7363279;19;19915;-59
2023/10/16 09:03:16;;;;;;;0.10;0.10;;;;;;;11.87;56.71;101509.25;7367954;19;20077;-58
2023/10/16 09:05:43;;;;;;;0.00;0.00;;;;;;;11.72;56.79;101482.41;7366436;19;20010;-59
2023/10/16 09:08:14;;;;;;;0.10;0.10;;;;;;;11.92;56.86;101506.56;7365264;19;20866;-59
2023/10/16 09:10:41;;;;;;;0.00;0.00;;;;;;;11.95;56.72;101511.72;7362757;19;20010;-59
2023/10/16 09:13:15;;;;;;;0.00;0.00;;;;;;;11.99;56.98;101513.41;7361385;19;20495;-59
2023/10/16 09:15:48;;;;;;;0.00;0.00;;;;;;;12.02;56.77;101516.00;7331720;19;20006;-59
2023/10/16 09:18:16;;;;;;;0.00;0.00;;;;;;;12.10;57.10;101515.88;7359007;19;20451;-58
2023/10/16 09:20:42;;;;;;;0.08;0.08;;;;;;;12.14;57.15;101512.31;7363206;19;20019;-59
2023/10/16 09:23:13;;;;;;;0.05;0.05;;;;;;;12.23;56.69;101511.31;7365662;19;20044;-59
2023/10/16 09:25:49;;;;;;;0.10;0.10;;;;;;;12.31;56.45;101515.50;7362932;19;20026;-58
2023/10/16 09:28:19;;;;;;;0.00;0.00;;;;;;;12.34;56.70;101515.47;7363412;19;20014;-59
2023/10/16 09:30:48;;;;;;;0.10;0.10;;;;;;;12.37;56.90;101493.63;7360936;19;20019;-59
2023/10/16 09:33:14;;;;;;;0.10;0.10;;;;;;;12.60;56.62;101516.78;7356920;19;20014;-59
2023/10/16 09:35:43;;;;;;;0.10;0.10;;;;;;;12.76;56.77;101517.34;7353136;19;22396;-59
2023/10/16 09:38:19;;;;;;;0.00;0.00;;;;;;;12.98;56.42;101518.69;7368057;19;20415;-59
2023/10/16 09:49:13;;;;;;;0.10;0.10;;;;;;;13.66;56.12;101508.53;7366914;19;20085;-59
2023/10/16 09:51:45;;;;;;;0.10;0.10;;;;;;;13.93;56.24;101503.53;7363563;19;20002;-59
2023/10/16 09:54:13;;;;;;;0.10;0.10;;;;;;;14.13;55.73;101509.16;7362644;19;20011;-59
2023/10/16 09:56:44;;;;;;;0.10;0.10;;;;;;;14.40;55.66;101506.75;7361194;19;20011;-59
2023/10/16 09:59:38;;;;;;;0.10;0.10;;;;;;;14.69;55.56;101509.50;7364803;19;20018;-59
2023/10/16 10:02:08;;;;;;;0.00;0.00;;;;;;;14.82;55.08;101503.94;7370505;19;20018;-59
2023/10/16 10:04:35;;;;;;;0.10;0.10;;;;;;;14.98;55.37;101510.47;7366481;19;20025;-59
2023/10/16 10:07:18;;;;;;;0.10;0.10;;;;;;;15.33;55.31;101512.09;7366268;19;20177;-59
2023/10/16 10:09:46;;;;;;;0.10;0.10;;;;;;;15.68;54.54;101510.22;7367550;19;20424;-59
2023/10/16 10:12:24;;;;;;;0.10;0.10;;;;;;;16.11;53.71;101506.19;7362374;19;20032;-60
2023/10/16 10:15:25;;;;;;;0.10;0.10;;;;;;;16.59;54.26;101508.97;7333230;19;20023;-59
2023/10/16 10:17:54;;;;;;;0.10;0.10;;;;;;;16.96;52.85;101498.00;7363708;19;20010;-59
2023/10/16 10:20:31;;;;;;;0.10;0.10;;;;;;;17.36;52.38;101502.63;7361446;19;20019;-59
2023/10/16 10:23:04;;;;;;;0.10;0.10;;;;;;;17.66;50.12;101499.75;7365032;19;20013;-59
2023/10/16 10:25:37;;;;;;;0.10;0.10;;;;;;;18.00;50.00;101503.72;7343340;19;20018;-60
2023/10/16 10:28:22;;;;;;;0.10;0.10;;;;;;;18.33;50.81;101482.94;7362565;19;20258;-59
2023/10/16 10:30:49;;;;;;;0.10;0.10;;;;;;;18.53;49.33;101471.50;7359776;19;20180;-60
2023/10/16 10:34:04;;;;;;;0.10;0.10;;;;;;;19.17;50.59;101511.00;7367210;19;20014;-59
2023/10/16 10:36:32;;;;;;;0.10;0.10;;;;;;;19.44;48.25;101509.72;7363144;19;20764;-59
2023/10/16 10:41:54;;;;;;;0.00;0.00;;;;;;;20.06;47.24;101505.00;7362936;19;20925;-59
2023/10/16 10:44:28;;;;;;;0.10;0.10;;;;;;;20.48;48.59;101506.50;7360096;19;20018;-59
2023/10/16 10:46:54;;;;;;;0.10;0.10;;;;;;;20.59;45.68;101500.63;7358465;19;20541;-59
2023/10/16 10:49:33;;;;;;;0.10;0.10;;;;;;;21.02;47.17;101503.66;7365537;19;20079;-59
2023/10/16 10:52:06;;;;;;;0.10;0.10;;;;;;;21.17;45.94;101509.00;7361735;19;20017;-59
2023/10/16 10:54:33;;;;;;;0.10;0.10;;;;;;;21.14;44.42;101509.19;7364360;19;20014;-59
2023/10/16 10:57:07;;;;;;;0.10;0.10;;;;;;;21.19;43.70;101507.13;7363903;19;20039;-59
2023/10/16 10:59:47;;;;;;;0.10;0.10;;;;;;;21.20;43.40;101503.53;7364364;19;20079;-59
2023/10/16 11:04:59;;;;;;;0.10;0.10;;;;;;;20.78;43.29;101496.03;7361538;19;20011;-59
2023/10/16 11:07:29;;;;;;;0.10;0.10;;;;;;;20.59;42.98;101490.00;7361412;19;20458;-59
2023/10/16 11:09:59;;;;;;;0.10;0.10;;;;;;;20.41;42.43;101489.97;7360106;19;20014;-58
2023/10/16 11:12:25;;;;;;;0.10;0.10;;;;;;;20.21;42.16;101500.72;7362339;19;20422;-59
2023/10/16 11:14:53;;;;;;;0.00;0.00;;;;;;;19.91;42.88;101476.59;7372657;19;20085;-59
2023/10/16 11:17:32;;;;;;;0.10;0.10;;;;;;;19.92;43.85;101484.50;7368821;19;20018;-59
2023/10/16 11:20:11;;;;;;;0.10;0.10;;;;;;;19.73;43.25;101477.53;7370830;19;20003;-59
2023/10/16 11:22:43;;;;;;;0.10;0.10;;;;;;;19.66;43.78;101483.09;7362681;19;20105;-59
2023/10/16 11:25:10;;;;;;;0.10;0.10;;;;;;;19.64;44.05;101462.91;7365571;19;20018;-58
2023/10/16 11:27:37;;;;;;;0.10;0.10;;;;;;;19.75;42.70;101475.63;7364601;19;20054;-60
2023/10/16 11:30:11;;;;;;;0.10;0.10;;;;;;;19.78;42.73;101479.00;7363408;19;20467;-59
2023/10/16 11:32:48;;;;;;;0.10;0.10;;;;;;;19.79;43.16;101475.41;7363608;19;20046;-59
2023/10/16 11:35:17;;;;;;;0.10;0.10;;;;;;;19.73;43.86;101469.56;7358963;19;20014;-59
2023/10/16 11:37:50;;;;;;;0.10;0.10;;;;;;;19.81;41.69;101476.19;7365340;19;20127;-59
2023/10/16 11:41:04;;;;;;;0.10;0.10;;;;;;;19.88;41.52;101469.66;7362811;19;20037;-59
2023/10/16 11:43:11;;;;;;;0.10;0.10;;;;;;;20.03;41.76;101464.56;7363119;19;20014;-59
2023/10/16 11:45:38;;;;;;;0.08;0.08;;;;;;;20.19;41.74;101460.19;7361430;19;20008;-59
2023/10/16 11:50:52;;;;;;;0.10;0.10;;;;;;;20.63;42.52;101468.53;7359453;19;20014;-59
2023/10/16 11:53:23;;;;;;;0.10;0.10;;;;;;;20.79;41.91;101444.69;7361652;19;20018;-59
2023/10/16 11:55:50;;;;;;;0.10;0.10;;;;;;;21.17;42.26;101452.38;7358220;19;20010;-59
2023/10/16 11:58:16;;;;;;;0.10;0.10;;;;;;;21.43;42.50;101450.94;7364633;19;20014;-58
2023/10/16 12:00:56;;;;;;;0.10;0.10;;;;;;;21.70;43.18;101432.59;7366247;19;20018;-59
2023/10/16 12:03:26;;;;;;;0.10;0.10;;;;;;;21.89;41.33;101443.84;7359777;19;20926;-59
2023/10/16 12:05:52;;;;;;;0.10;0.10;;;;;;;22.02;41.00;101444.84;7361317;19;20045;-59
2023/10/16 12:08:18;;;;;;;0.10;0.10;;;;;;;22.14;40.40;101443.28;7362902;19;20023;-59
2023/10/16 12:10:50;;;;;;;0.10;0.10;;;;;;;22.27;40.19;101435.47;7354138;19;20046;-59
2023/10/16 12:13:16;;;;;;;0.10;0.10;;;;;;;22.20;39.99;101412.81;7360578;19;20016;-59
2023/10/16 12:15:43;;;;;;;0.10;0.10;;;;;;;22.40;40.71;101423.09;7359684;19;20014;-60
2023/10/16 12:18:09;;;;;;;0.10;0.10;;;;;;;22.62;41.03;101421.81;7368657;19;20029;-59
2023/10/16 12:20:37;;;;;;;0.10;0.10;;;;;;;22.95;40.47;101422.38;7361214;19;20029;-59
2023/10/16 12:23:04;;;;;;;0.10;0.10;;;;;;;23.25;39.37;101416.91;7358552;19;20487;-60
2023/10/16 12:25:29;;;;;;;0.10;0.10;;;;;;;23.66;38.42;101415.19;7356803;19;20022;-59
2023/10/16 12:27:55;;;;;;;0.10;0.10;;;;;;;23.98;39.28;101408.56;7359790;19;20880;-59
2023/10/16 12:30:20;;;;;;;0.10;0.10;;;;;;;24.28;39.07;101412.75;7360798;19;20437;-59
2023/10/16 12:32:46;;;;;;;0.10;0.10;;;;;;;24.59;38.34;101417.72;7363787;19;20027;-59
2023/10/16 12:35:18;;;;;;;0.00;0.00;;;;;;;24.89;37.75;101408.50;7367709;19;20018;-59
2023/10/16 12:37:43;;;;;;;0.10;0.10;;;;;;;25.19;36.96;101409.94;7361758;19;20010;-60
2023/10/16 12:40:27;;;;;;;0.00;0.00;;;;;;;25.39;36.57;101401.28;7360726;19;20772;-60
2023/10/16 12:42:55;;;;;;;0.00;0.00;;;;;;;25.65;34.08;101395.81;7359556;19;20019;-59
2023/10/16 12:45:22;;;;;;;0.10;0.10;;;;;;;25.78;33.92;101392.16;7357861;19;20057;-59
2023/10/16 12:47:51;;;;;;;0.00;0.00;;;;;;;25.93;36.16;101390.13;7362044;19;20011;-59
2023/10/16 12:50:18;;;;;;;0.10;0.10;;;;;;;26.11;34.39;101386.06;7358016;19;20467;-59
2023/10/16 12:52:44;;;;;;;0.00;0.00;;;;;;;26.32;34.20;101385.34;7357103;19;20014;-59
2023/10/16 12:55:10;;;;;;;0.10;0.10;;;;;;;26.53;34.50;101378.34;7355419;19;20021;-59
2023/10/16 12:57:36;;;;;;;0.10;0.10;;;;;;;26.65;33.91;101355.91;7363697;19;20018;-59
2023/10/16 13:00:13;;;;;;;0.10;0.10;;;;;;;26.96;32.58;101374.88;7361138;19;20365;-59
2023/10/16 13:02:42;;;;;;;0.03;0.03;;;;;;;27.18;32.38;101368.66;7362037;19;20022;-59
2023/10/16 13:05:13;;;;;;;0.10;0.10;;;;;;;27.36;32.90;101368.97;7365868;19;20014;-59
2023/10/16 13:07:47;;;;;;;0.03;0.03;;;;;;;27.52;31.33;101382.78;7366552;19;20019;-59
2023/10/16 13:10:15;;;;;;;0.00;0.00;;;;;;;27.71;31.50;101375.94;7363932;19;20035;-59
2023/10/16 13:12:44;;;;;;;0.10;0.10;;;;;;;27.85;31.94;101383.69;7360076;19;20596;-58
2023/10/16 13:15:24;;;;;;;0.10;0.10;;;;;;;27.84;31.37;101371.25;7367641;19;20046;-59
2023/10/16 13:17:50;;;;;;;0.00;0.00;;;;;;;27.71;29.92;101374.09;7357604;19;20015;-58
2023/10/16 13:20:18;;;;;;;0.10;0.10;;;;;;;27.56;30.14;101373.53;7366309;19;20013;-59
2023/10/16 13:22:45;;;;;;;0.10;0.10;;;;;;;27.41;30.09;101364.91;7364076;19;20656;-59
2023/10/16 13:25:13;;;;;;;0.10;0.10;;;;;;;27.30;29.87;101358.75;7368005;19;20014;-59
2023/10/16 13:27:39;;;;;;;0.10;0.10;;;;;;;27.15;30.82;101359.03;7365612;19;20022;-60
2023/10/16 13:30:06;;;;;;;0.10;0.10;;;;;;;27.02;31.46;101352.97;7368426;19;20089;-59
2023/10/16 13:32:31;;;;;;;0.00;0.00;;;;;;;26.85;30.26;101356.13;7365116;19;20432;-60
2023/10/16 13:35:00;;;;;;;0.10;0.10;;;;;;;26.72;31.43;101345.56;7369245;19;20037;-59
2023/10/16 13:37:25;;;;;;;0.05;0.05;;;;;;;26.64;30.29;101348.00;7370463;19;20018;-59
2023/10/16 13:39:52;;;;;;;0.00;0.00;;;;;;;26.59;28.55;101344.84;7367335;19;20008;-59
2023/10/16 13:42:20;;;;;;;0.10;0.10;;;;;;;26.48;29.47;101342.19;7364972;19;20573;-59
2023/10/16 13:44:46;;;;;;;0.03;0.03;;;;;;;26.31;29.64;101340.81;7366734;19;20078;-59
2023/10/16 13:47:13;;;;;;;0.10;0.10;;;;;;;26.11;29.34;101340.53;7366052;19;20010;-59
2023/10/16 13:49:40;;;;;;;0.10;0.10;;;;;;;25.93;29.96;101336.59;7362857;19;20011;-59
2023/10/16 13:52:08;;;;;;;0.10;0.10;;;;;;;25.79;30.95;101328.78;7361353;19;21896;-59
2023/10/16 13:54:40;;;;;;;0.00;0.00;;;;;;;25.77;32.47;101331.59;7365275;19;20017;-59